sensor_id;sensor_type;location;lat;lon;timestamp;P1;durP1;ratioP1;P2;durP2;ratioP2
9459;SDS011;4768;42.664;23.240;2023-11-22T00:00:52;16.00;;;9.70;;
9459;SDS011;4768;42.664;23.240;2023-11-22T00:03:19;13.77;;;8.63;;
9459;SDS011;4768;42.664;23.240;2023-11-22T00:05:46;15.60;;;8.90;;
9459;SDS011;4768;42.664;23.240;2023-11-22T00:08:13;26.33;;;12.83;;
9459;SDS011;4768;42.664;23.240;2023-11-22T00:10:41;20.00;;;11.33;;
9459;SDS011;4768;42.664;23.240;2023-11-22T00:13:08;19.23;;;9.50;;
9459;SDS011;4768;42.664;23.240;2023-11-22T00:15:34;14.53;;;9.07;;
9459;SDS011;4768;42.664;23.240;2023-11-22T00:18:01;16.43;;;9.33;;
9459;SDS011;4768;42.664;23.240;2023-11-22T00:20:29;14.40;;;8.90;;
9459;SDS011;4768;42.664;23.240;2023-11-22T00:22:56;17.23;;;9.13;;
9459;SDS011;4768;42.664;23.240;2023-11-22T00:25:22;16.40;;;10.37;;
9459;SDS011;4768;42.664;23.240;2023-11-22T00:27:51;15.77;;;9.87;;
9459;SDS011;4768;42.664;23.240;2023-11-22T00:30:18;16.37;;;9.53;;
9459;SDS011;4768;42.664;23.240;2023-11-22T00:32:45;19.07;;;9.63;;
9459;SDS011;4768;42.664;23.240;2023-11-22T00:35:12;17.93;;;9.60;;
9459;SDS011;4768;42.664;23.240;2023-11-22T00:37:38;18.50;;;11.00;;
9459;SDS011;4768;42.664;23.240;2023-11-22T00:40:07;13.80;;;8.00;;
9459;SDS011;4768;42.664;23.240;2023-11-22T00:42:37;14.17;;;8.90;;
9459;SDS011;4768;42.664;23.240;2023-11-22T00:45:06;15.97;;;9.60;;
9459;SDS011;4768;42.664;23.240;2023-11-22T00:47:35;15.73;;;9.53;;
9459;SDS011;4768;42.664;23.240;2023-11-22T00:50:02;15.60;;;8.93;;
9459;SDS011;4768;42.664;23.240;2023-11-22T00:52:29;17.73;;;9.27;;
9459;SDS011;4768;42.664;23.240;2023-11-22T00:54:56;12.67;;;7.90;;
9459;SDS011;4768;42.664;23.240;2023-11-22T00:57:23;13.83;;;8.37;;
9459;SDS011;4768;42.664;23.240;2023-11-22T00:59:52;16.43;;;8.07;;
9459;SDS011;4768;42.664;23.240;2023-11-22T01:02:20;13.97;;;8.53;;
9459;SDS011;4768;42.664;23.240;2023-11-22T01:04:47;15.93;;;8.90;;
9459;SDS011;4768;42.664;23.240;2023-11-22T01:07:13;13.83;;;8.00;;
9459;SDS011;4768;42.664;23.240;2023-11-22T01:09:41;16.17;;;9.43;;
9459;SDS011;4768;42.664;23.240;2023-11-22T01:12:07;16.57;;;9.07;;
9459;SDS011;4768;42.664;23.240;2023-11-22T01:14:37;13.57;;;8.60;;
9459;SDS011;4768;42.664;23.240;2023-11-22T01:17:04;14.93;;;9.50;;
9459;SDS011;4768;42.664;23.240;2023-11-22T01:19:32;13.77;;;9.43;;
9459;SDS011;4768;42.664;23.240;2023-11-22T01:21:59;16.60;;;9.43;;
9459;SDS011;4768;42.664;23.240;2023-11-22T01:24:25;18.83;;;10.03;;
9459;SDS011;4768;42.664;23.240;2023-11-22T01:26:53;15.30;;;8.83;;
9459;SDS011;4768;42.664;23.240;2023-11-22T01:29:20;16.80;;;8.70;;
9459;SDS011;4768;42.664;23.240;2023-11-22T01:31:47;15.77;;;9.00;;
9459;SDS011;4768;42.664;23.240;2023-11-22T01:34:14;16.13;;;9.20;;
9459;SDS011;4768;42.664;23.240;2023-11-22T01:36:43;15.27;;;9.23;;
9459;SDS011;4768;42.664;23.240;2023-11-22T01:39:10;12.50;;;8.10;;
9459;SDS011;4768;42.664;23.240;2023-11-22T01:41:38;15.87;;;8.47;;
9459;SDS011;4768;42.664;23.240;2023-11-22T01:44:07;15.13;;;7.77;;
9459;SDS011;4768;42.664;23.240;2023-11-22T01:46:34;12.37;;;6.83;;
9459;SDS011;4768;42.664;23.240;2023-11-22T01:51:25;14.93;;;8.48;;
9459;SDS011;4768;42.664;23.240;2023-11-22T01:53:55;12.83;;;7.90;;
9459;SDS011;4768;42.664;23.240;2023-11-22T01:56:25;14.97;;;6.73;;
9459;SDS011;4768;42.664;23.240;2023-11-22T01:58:53;13.03;;;7.57;;
9459;SDS011;4768;42.664;23.240;2023-11-22T02:01:21;13.47;;;7.90;;
9459;SDS011;4768;42.664;23.240;2023-11-22T02:03:48;10.57;;;7.03;;
9459;SDS011;4768;42.664;23.240;2023-11-22T02:06:17;13.93;;;7.00;;
9459;SDS011;4768;42.664;23.240;2023-11-22T02:08:44;11.47;;;6.57;;
9459;SDS011;4768;42.664;23.240;2023-11-22T02:11:12;12.63;;;7.33;;
9459;SDS011;4768;42.664;23.240;2023-11-22T02:13:39;10.50;;;6.83;;
9459;SDS011;4768;42.664;23.240;2023-11-22T02:16:05;15.27;;;8.07;;
9459;SDS011;4768;42.664;23.240;2023-11-22T02:18:32;12.83;;;7.57;;
9459;SDS011;4768;42.664;23.240;2023-11-22T02:21:00;11.57;;;6.97;;
9459;SDS011;4768;42.664;23.240;2023-11-22T02:23:28;9.73;;;6.23;;
9459;SDS011;4768;42.664;23.240;2023-11-22T02:25:55;12.67;;;6.73;;
9459;SDS011;4768;42.664;23.240;2023-11-22T02:28:21;12.20;;;6.57;;
9459;SDS011;4768;42.664;23.240;2023-11-22T02:30:48;11.77;;;6.10;;
9459;SDS011;4768;42.664;23.240;2023-11-22T02:33:15;11.73;;;6.23;;
9459;SDS011;4768;42.664;23.240;2023-11-22T02:35:42;9.27;;;5.67;;
9459;SDS011;4768;42.664;23.240;2023-11-22T02:38:09;10.23;;;6.63;;
9459;SDS011;4768;42.664;23.240;2023-11-22T02:40:37;11.47;;;6.33;;
9459;SDS011;4768;42.664;23.240;2023-11-22T02:43:04;11.63;;;7.73;;
9459;SDS011;4768;42.664;23.240;2023-11-22T02:45:34;12.83;;;7.57;;
9459;SDS011;4768;42.664;23.240;2023-11-22T02:48:01;10.60;;;6.93;;
9459;SDS011;4768;42.664;23.240;2023-11-22T02:50:28;12.60;;;7.13;;
9459;SDS011;4768;42.664;23.240;2023-11-22T02:52:56;15.27;;;7.47;;
9459;SDS011;4768;42.664;23.240;2023-11-22T02:55:23;14.17;;;7.53;;
9459;SDS011;4768;42.664;23.240;2023-11-22T02:57:52;9.73;;;7.27;;
9459;SDS011;4768;42.664;23.240;2023-11-22T03:00:19;32.40;;;14.77;;
9459;SDS011;4768;42.664;23.240;2023-11-22T03:02:46;12.70;;;7.73;;
9459;SDS011;4768;42.664;23.240;2023-11-22T03:05:16;13.73;;;8.03;;
9459;SDS011;4768;42.664;23.240;2023-11-22T03:07:44;12.93;;;7.87;;
9459;SDS011;4768;42.664;23.240;2023-11-22T03:10:10;11.70;;;7.27;;
9459;SDS011;4768;42.664;23.240;2023-11-22T03:12:38;11.47;;;7.00;;
9459;SDS011;4768;42.664;23.240;2023-11-22T03:15:06;17.03;;;11.33;;
9459;SDS011;4768;42.664;23.240;2023-11-22T03:17:34;14.83;;;8.60;;
9459;SDS011;4768;42.664;23.240;2023-11-22T03:20:04;13.80;;;7.60;;
9459;SDS011;4768;42.664;23.240;2023-11-22T03:22:34;12.37;;;6.97;;
9459;SDS011;4768;42.664;23.240;2023-11-22T03:25:02;9.60;;;6.63;;
9459;SDS011;4768;42.664;23.240;2023-11-22T03:27:28;11.53;;;6.17;;
9459;SDS011;4768;42.664;23.240;2023-11-22T03:29:55;8.43;;;5.27;;
9459;SDS011;4768;42.664;23.240;2023-11-22T03:32:23;9.47;;;6.30;;
9459;SDS011;4768;42.664;23.240;2023-11-22T03:34:50;9.97;;;5.97;;
9459;SDS011;4768;42.664;23.240;2023-11-22T03:37:17;9.70;;;6.20;;
9459;SDS011;4768;42.664;23.240;2023-11-22T03:39:44;10.30;;;6.30;;
9459;SDS011;4768;42.664;23.240;2023-11-22T03:42:13;9.53;;;6.50;;
9459;SDS011;4768;42.664;23.240;2023-11-22T03:44:41;10.80;;;6.20;;
9459;SDS011;4768;42.664;23.240;2023-11-22T03:47:09;12.80;;;7.17;;
9459;SDS011;4768;42.664;23.240;2023-11-22T03:49:38;15.47;;;7.53;;
9459;SDS011;4768;42.664;23.240;2023-11-22T03:52:05;12.10;;;7.30;;
9459;SDS011;4768;42.664;23.240;2023-11-22T03:54:33;13.50;;;8.07;;
9459;SDS011;4768;42.664;23.240;2023-11-22T03:57:00;14.37;;;8.53;;
9459;SDS011;4768;42.664;23.240;2023-11-22T03:59:27;12.47;;;7.90;;
9459;SDS011;4768;42.664;23.240;2023-11-22T04:01:53;13.53;;;7.30;;
9459;SDS011;4768;42.664;23.240;2023-11-22T04:04:20;14.37;;;8.50;;
9459;SDS011;4768;42.664;23.240;2023-11-22T04:06:48;12.70;;;7.47;;
9459;SDS011;4768;42.664;23.240;2023-11-22T04:09:15;32.47;;;22.77;;
9459;SDS011;4768;42.664;23.240;2023-11-22T04:11:43;11.20;;;6.83;;
9459;SDS011;4768;42.664;23.240;2023-11-22T04:14:09;17.97;;;9.70;;
9459;SDS011;4768;42.664;23.240;2023-11-22T04:16:36;17.13;;;10.20;;
9459;SDS011;4768;42.664;23.240;2023-11-22T04:19:03;15.83;;;9.00;;
9459;SDS011;4768;42.664;23.240;2023-11-22T04:21:30;14.30;;;7.83;;
9459;SDS011;4768;42.664;23.240;2023-11-22T04:23:58;11.67;;;7.53;;
9459;SDS011;4768;42.664;23.240;2023-11-22T04:26:24;13.33;;;7.27;;
9459;SDS011;4768;42.664;23.240;2023-11-22T04:28:51;13.57;;;7.20;;
9459;SDS011;4768;42.664;23.240;2023-11-22T04:31:18;15.03;;;7.23;;
9459;SDS011;4768;42.664;23.240;2023-11-22T04:33:45;9.90;;;6.03;;
9459;SDS011;4768;42.664;23.240;2023-11-22T04:36:11;13.37;;;6.57;;
9459;SDS011;4768;42.664;23.240;2023-11-22T04:38:38;10.07;;;6.00;;
9459;SDS011;4768;42.664;23.240;2023-11-22T04:41:06;9.63;;;6.07;;
9459;SDS011;4768;42.664;23.240;2023-11-22T04:43:33;12.50;;;7.70;;
9459;SDS011;4768;42.664;23.240;2023-11-22T04:46:00;17.47;;;10.43;;
9459;SDS011;4768;42.664;23.240;2023-11-22T04:48:26;38.80;;;20.27;;
9459;SDS011;4768;42.664;23.240;2023-11-22T04:50:53;11.40;;;7.53;;
9459;SDS011;4768;42.664;23.240;2023-11-22T04:53:20;11.17;;;6.73;;
9459;SDS011;4768;42.664;23.240;2023-11-22T04:55:47;12.00;;;6.23;;
9459;SDS011;4768;42.664;23.240;2023-11-22T04:58:15;10.60;;;7.20;;
9459;SDS011;4768;42.664;23.240;2023-11-22T05:00:42;13.13;;;8.20;;
9459;SDS011;4768;42.664;23.240;2023-11-22T05:03:10;13.90;;;8.00;;
9459;SDS011;4768;42.664;23.240;2023-11-22T05:05:38;16.00;;;8.00;;
9459;SDS011;4768;42.664;23.240;2023-11-22T05:08:04;12.63;;;7.63;;
9459;SDS011;4768;42.664;23.240;2023-11-22T05:10:31;17.37;;;9.90;;
9459;SDS011;4768;42.664;23.240;2023-11-22T05:12:58;14.27;;;8.30;;
9459;SDS011;4768;42.664;23.240;2023-11-22T05:15:27;14.87;;;8.13;;
9459;SDS011;4768;42.664;23.240;2023-11-22T05:17:54;16.93;;;9.83;;
9459;SDS011;4768;42.664;23.240;2023-11-22T05:20:21;16.50;;;9.67;;
9459;SDS011;4768;42.664;23.240;2023-11-22T05:22:47;12.83;;;9.30;;
9459;SDS011;4768;42.664;23.240;2023-11-22T05:25:14;17.27;;;10.60;;
9459;SDS011;4768;42.664;23.240;2023-11-22T05:27:41;20.47;;;13.90;;
9459;SDS011;4768;42.664;23.240;2023-11-22T05:30:08;18.40;;;10.90;;
9459;SDS011;4768;42.664;23.240;2023-11-22T05:32:38;18.97;;;10.03;;
9459;SDS011;4768;42.664;23.240;2023-11-22T05:35:05;16.43;;;11.73;;
9459;SDS011;4768;42.664;23.240;2023-11-22T05:37:34;18.93;;;12.30;;
9459;SDS011;4768;42.664;23.240;2023-11-22T05:40:02;15.33;;;10.63;;
9459;SDS011;4768;42.664;23.240;2023-11-22T05:42:30;16.97;;;9.93;;
9459;SDS011;4768;42.664;23.240;2023-11-22T05:44:57;13.73;;;8.77;;
9459;SDS011;4768;42.664;23.240;2023-11-22T05:47:23;13.97;;;9.20;;
9459;SDS011;4768;42.664;23.240;2023-11-22T05:49:51;12.37;;;8.43;;
9459;SDS011;4768;42.664;23.240;2023-11-22T05:52:26;13.10;;;8.77;;
9459;SDS011;4768;42.664;23.240;2023-11-22T05:54:53;15.10;;;9.07;;
9459;SDS011;4768;42.664;23.240;2023-11-22T05:57:20;12.57;;;8.53;;
9459;SDS011;4768;42.664;23.240;2023-11-22T05:59:46;16.00;;;9.17;;
9459;SDS011;4768;42.664;23.240;2023-11-22T06:02:13;15.70;;;9.93;;
9459;SDS011;4768;42.664;23.240;2023-11-22T06:04:40;13.83;;;9.13;;
9459;SDS011;4768;42.664;23.240;2023-11-22T06:07:08;17.10;;;9.47;;
9459;SDS011;4768;42.664;23.240;2023-11-22T06:09:35;14.13;;;9.10;;
9459;SDS011;4768;42.664;23.240;2023-11-22T06:12:02;13.50;;;9.10;;
9459;SDS011;4768;42.664;23.240;2023-11-22T06:14:29;18.20;;;10.40;;
9459;SDS011;4768;42.664;23.240;2023-11-22T06:16:56;17.23;;;9.60;;
9459;SDS011;4768;42.664;23.240;2023-11-22T06:19:23;15.43;;;9.83;;
9459;SDS011;4768;42.664;23.240;2023-11-22T06:21:49;16.20;;;10.17;;
9459;SDS011;4768;42.664;23.240;2023-11-22T06:24:17;14.50;;;9.37;;
9459;SDS011;4768;42.664;23.240;2023-11-22T06:26:45;19.00;;;9.80;;
9459;SDS011;4768;42.664;23.240;2023-11-22T06:29:12;14.63;;;9.40;;
9459;SDS011;4768;42.664;23.240;2023-11-22T06:31:39;14.37;;;9.33;;
9459;SDS011;4768;42.664;23.240;2023-11-22T06:34:06;14.47;;;9.20;;
9459;SDS011;4768;42.664;23.240;2023-11-22T06:36:33;19.57;;;9.53;;
9459;SDS011;4768;42.664;23.240;2023-11-22T06:39:00;16.57;;;10.37;;
9459;SDS011;4768;42.664;23.240;2023-11-22T06:41:28;15.27;;;9.33;;
9459;SDS011;4768;42.664;23.240;2023-11-22T06:43:55;15.60;;;9.57;;
9459;SDS011;4768;42.664;23.240;2023-11-22T06:46:22;14.17;;;9.13;;
9459;SDS011;4768;42.664;23.240;2023-11-22T06:48:49;16.57;;;10.60;;
9459;SDS011;4768;42.664;23.240;2023-11-22T06:51:17;15.17;;;9.60;;
9459;SDS011;4768;42.664;23.240;2023-11-22T06:53:44;18.87;;;11.87;;
9459;SDS011;4768;42.664;23.240;2023-11-22T06:56:11;20.33;;;11.87;;
9459;SDS011;4768;42.664;23.240;2023-11-22T06:58:39;22.87;;;13.47;;
9459;SDS011;4768;42.664;23.240;2023-11-22T07:01:05;24.33;;;14.33;;
9459;SDS011;4768;42.664;23.240;2023-11-22T07:03:35;18.23;;;11.70;;
9459;SDS011;4768;42.664;23.240;2023-11-22T07:06:03;18.83;;;11.63;;
9459;SDS011;4768;42.664;23.240;2023-11-22T07:08:29;16.40;;;10.47;;
9459;SDS011;4768;42.664;23.240;2023-11-22T07:10:56;18.17;;;10.17;;
9459;SDS011;4768;42.664;23.240;2023-11-22T07:13:23;18.70;;;10.97;;
9459;SDS011;4768;42.664;23.240;2023-11-22T07:15:53;14.73;;;9.97;;
9459;SDS011;4768;42.664;23.240;2023-11-22T07:18:20;16.90;;;10.13;;
9459;SDS011;4768;42.664;23.240;2023-11-22T07:20:49;14.93;;;9.37;;
9459;SDS011;4768;42.664;23.240;2023-11-22T07:23:18;15.33;;;9.77;;
9459;SDS011;4768;42.664;23.240;2023-11-22T07:25:46;16.10;;;10.00;;
9459;SDS011;4768;42.664;23.240;2023-11-22T07:28:13;15.70;;;10.53;;
9459;SDS011;4768;42.664;23.240;2023-11-22T07:30:40;13.27;;;9.50;;
9459;SDS011;4768;42.664;23.240;2023-11-22T07:33:08;14.47;;;9.53;;
9459;SDS011;4768;42.664;23.240;2023-11-22T07:35:36;13.20;;;9.13;;
9459;SDS011;4768;42.664;23.240;2023-11-22T07:38:04;12.87;;;9.13;;
9459;SDS011;4768;42.664;23.240;2023-11-22T07:40:33;15.40;;;9.57;;
9459;SDS011;4768;42.664;23.240;2023-11-22T07:43:00;14.37;;;9.70;;
9459;SDS011;4768;42.664;23.240;2023-11-22T07:45:30;19.30;;;8.77;;
9459;SDS011;4768;42.664;23.240;2023-11-22T07:47:57;15.77;;;9.03;;
9459;SDS011;4768;42.664;23.240;2023-11-22T07:50:25;14.70;;;9.17;;
9459;SDS011;4768;42.664;23.240;2023-11-22T07:52:52;16.37;;;10.13;;
9459;SDS011;4768;42.664;23.240;2023-11-22T07:55:20;20.73;;;14.00;;
9459;SDS011;4768;42.664;23.240;2023-11-22T07:57:47;21.20;;;13.77;;
9459;SDS011;4768;42.664;23.240;2023-11-22T08:00:14;28.10;;;17.83;;
9459;SDS011;4768;42.664;23.240;2023-11-22T08:02:44;25.13;;;15.17;;
9459;SDS011;4768;42.664;23.240;2023-11-22T08:05:11;28.57;;;16.30;;
9459;SDS011;4768;42.664;23.240;2023-11-22T08:07:41;26.13;;;16.00;;
9459;SDS011;4768;42.664;23.240;2023-11-22T08:10:11;24.73;;;15.37;;
9459;SDS011;4768;42.664;23.240;2023-11-22T08:12:44;22.37;;;13.60;;
9459;SDS011;4768;42.664;23.240;2023-11-22T08:15:12;23.47;;;14.20;;
9459;SDS011;4768;42.664;23.240;2023-11-22T08:17:40;20.50;;;12.60;;
9459;SDS011;4768;42.664;23.240;2023-11-22T08:20:08;17.03;;;12.17;;
9459;SDS011;4768;42.664;23.240;2023-11-22T08:22:38;18.63;;;12.60;;
9459;SDS011;4768;42.664;23.240;2023-11-22T08:25:07;44.37;;;19.77;;
9459;SDS011;4768;42.664;23.240;2023-11-22T08:27:37;29.30;;;16.83;;
9459;SDS011;4768;42.664;23.240;2023-11-22T08:30:04;33.53;;;16.37;;
9459;SDS011;4768;42.664;23.240;2023-11-22T08:32:38;29.67;;;16.30;;
9459;SDS011;4768;42.664;23.240;2023-11-22T08:35:06;26.70;;;16.77;;
9459;SDS011;4768;42.664;23.240;2023-11-22T08:37:34;24.13;;;15.80;;
9459;SDS011;4768;42.664;23.240;2023-11-22T08:40:03;21.07;;;14.53;;
9459;SDS011;4768;42.664;23.240;2023-11-22T08:42:33;24.47;;;14.60;;
9459;SDS011;4768;42.664;23.240;2023-11-22T08:45:00;23.40;;;15.37;;
9459;SDS011;4768;42.664;23.240;2023-11-22T08:47:28;24.40;;;14.17;;
9459;SDS011;4768;42.664;23.240;2023-11-22T08:49:54;23.63;;;14.70;;
9459;SDS011;4768;42.664;23.240;2023-11-22T08:52:22;23.03;;;14.40;;
9459;SDS011;4768;42.664;23.240;2023-11-22T08:54:50;25.67;;;15.33;;
9459;SDS011;4768;42.664;23.240;2023-11-22T08:57:18;24.63;;;15.30;;
9459;SDS011;4768;42.664;23.240;2023-11-22T08:59:47;22.83;;;13.93;;
9459;SDS011;4768;42.664;23.240;2023-11-22T09:02:13;21.40;;;13.93;;
9459;SDS011;4768;42.664;23.240;2023-11-22T09:04:40;23.83;;;14.87;;
9459;SDS011;4768;42.664;23.240;2023-11-22T09:07:08;20.17;;;13.57;;
9459;SDS011;4768;42.664;23.240;2023-11-22T09:09:39;18.27;;;13.30;;
9459;SDS011;4768;42.664;23.240;2023-11-22T09:12:08;23.27;;;12.97;;
9459;SDS011;4768;42.664;23.240;2023-11-22T09:14:38;20.50;;;12.17;;
9459;SDS011;4768;42.664;23.240;2023-11-22T09:17:08;19.13;;;12.07;;
9459;SDS011;4768;42.664;23.240;2023-11-22T09:19:35;18.40;;;12.63;;
9459;SDS011;4768;42.664;23.240;2023-11-22T09:22:03;21.27;;;13.20;;
9459;SDS011;4768;42.664;23.240;2023-11-22T09:24:31;21.50;;;14.43;;
9459;SDS011;4768;42.664;23.240;2023-11-22T09:26:58;24.97;;;14.40;;
9459;SDS011;4768;42.664;23.240;2023-11-22T09:29:30;24.40;;;15.70;;
9459;SDS011;4768;42.664;23.240;2023-11-22T09:31:58;30.43;;;16.07;;
9459;SDS011;4768;42.664;23.240;2023-11-22T09:34:27;28.13;;;16.70;;
9459;SDS011;4768;42.664;23.240;2023-11-22T09:36:54;26.77;;;16.17;;
9459;SDS011;4768;42.664;23.240;2023-11-22T09:39:21;25.70;;;16.20;;
9459;SDS011;4768;42.664;23.240;2023-11-22T09:41:50;22.83;;;14.73;;
9459;SDS011;4768;42.664;23.240;2023-11-22T09:44:18;24.07;;;14.77;;
9459;SDS011;4768;42.664;23.240;2023-11-22T09:46:45;21.60;;;15.00;;
9459;SDS011;4768;42.664;23.240;2023-11-22T09:49:15;30.00;;;15.40;;
9459;SDS011;4768;42.664;23.240;2023-11-22T09:51:48;26.77;;;15.90;;
9459;SDS011;4768;42.664;23.240;2023-11-22T09:54:20;27.90;;;15.77;;
9459;SDS011;4768;42.664;23.240;2023-11-22T09:56:55;27.23;;;16.60;;
9459;SDS011;4768;42.664;23.240;2023-11-22T09:59:26;30.90;;;18.10;;
9459;SDS011;4768;42.664;23.240;2023-11-22T10:01:55;30.47;;;18.53;;
9459;SDS011;4768;42.664;23.240;2023-11-22T10:04:24;27.77;;;17.63;;
9459;SDS011;4768;42.664;23.240;2023-11-22T10:06:55;25.90;;;17.00;;
9459;SDS011;4768;42.664;23.240;2023-11-22T10:09:24;26.90;;;16.73;;
9459;SDS011;4768;42.664;23.240;2023-11-22T10:11:52;23.63;;;16.00;;
9459;SDS011;4768;42.664;23.240;2023-11-22T10:14:22;25.20;;;15.97;;
9459;SDS011;4768;42.664;23.240;2023-11-22T10:16:57;30.30;;;17.10;;
9459;SDS011;4768;42.664;23.240;2023-11-22T10:19:24;28.87;;;17.00;;
9459;SDS011;4768;42.664;23.240;2023-11-22T10:22:03;35.00;;;19.07;;
9459;SDS011;4768;42.664;23.240;2023-11-22T10:24:31;26.57;;;16.20;;
9459;SDS011;4768;42.664;23.240;2023-11-22T10:26:58;24.67;;;15.63;;
9459;SDS011;4768;42.664;23.240;2023-11-22T10:29:25;26.17;;;16.00;;
9459;SDS011;4768;42.664;23.240;2023-11-22T10:31:52;27.30;;;16.40;;
9459;SDS011;4768;42.664;23.240;2023-11-22T10:34:20;25.07;;;15.63;;
9459;SDS011;4768;42.664;23.240;2023-11-22T10:36:47;26.50;;;15.80;;
9459;SDS011;4768;42.664;23.240;2023-11-22T10:39:19;25.90;;;15.70;;
9459;SDS011;4768;42.664;23.240;2023-11-22T10:41:46;25.40;;;15.53;;
9459;SDS011;4768;42.664;23.240;2023-11-22T10:44:16;26.07;;;15.90;;
9459;SDS011;4768;42.664;23.240;2023-11-22T10:46:47;21.87;;;15.30;;
9459;SDS011;4768;42.664;23.240;2023-11-22T10:49:16;25.83;;;15.37;;
9459;SDS011;4768;42.664;23.240;2023-11-22T10:51:42;22.63;;;15.60;;
9459;SDS011;4768;42.664;23.240;2023-11-22T10:54:12;24.63;;;15.80;;
9459;SDS011;4768;42.664;23.240;2023-11-22T10:56:41;26.43;;;15.33;;
9459;SDS011;4768;42.664;23.240;2023-11-22T10:59:13;23.23;;;14.10;;
9459;SDS011;4768;42.664;23.240;2023-11-22T11:01:41;22.50;;;14.87;;
9459;SDS011;4768;42.664;23.240;2023-11-22T11:04:18;21.50;;;15.27;;
9459;SDS011;4768;42.664;23.240;2023-11-22T11:06:46;20.87;;;14.20;;
9459;SDS011;4768;42.664;23.240;2023-11-22T11:09:20;21.07;;;13.77;;
9459;SDS011;4768;42.664;23.240;2023-11-22T11:11:53;25.90;;;14.27;;
9459;SDS011;4768;42.664;23.240;2023-11-22T11:14:21;25.83;;;14.43;;
9459;SDS011;4768;42.664;23.240;2023-11-22T11:16:49;25.60;;;15.43;;
9459;SDS011;4768;42.664;23.240;2023-11-22T11:19:19;23.97;;;13.97;;
9459;SDS011;4768;42.664;23.240;2023-11-22T11:21:47;22.60;;;15.10;;
9459;SDS011;4768;42.664;23.240;2023-11-22T11:24:15;22.83;;;14.87;;
9459;SDS011;4768;42.664;23.240;2023-11-22T11:26:45;23.83;;;15.73;;
9459;SDS011;4768;42.664;23.240;2023-11-22T11:29:30;24.90;;;15.87;;
9459;SDS011;4768;42.664;23.240;2023-11-22T11:31:58;24.57;;;14.93;;
9459;SDS011;4768;42.664;23.240;2023-11-22T11:34:24;29.57;;;18.10;;
9459;SDS011;4768;42.664;23.240;2023-11-22T11:36:52;25.53;;;17.40;;
9459;SDS011;4768;42.664;23.240;2023-11-22T11:39:24;29.73;;;16.13;;
9459;SDS011;4768;42.664;23.240;2023-11-22T11:42:06;24.67;;;16.60;;
9459;SDS011;4768;42.664;23.240;2023-11-22T11:44:35;32.00;;;19.27;;
9459;SDS011;4768;42.664;23.240;2023-11-22T11:47:08;25.63;;;16.80;;
9459;SDS011;4768;42.664;23.240;2023-11-22T11:49:36;28.40;;;16.60;;
9459;SDS011;4768;42.664;23.240;2023-11-22T11:52:03;28.97;;;16.67;;
9459;SDS011;4768;42.664;23.240;2023-11-22T11:54:30;26.23;;;16.87;;
9459;SDS011;4768;42.664;23.240;2023-11-22T11:56:58;26.33;;;16.93;;
9459;SDS011;4768;42.664;23.240;2023-11-22T11:59:26;25.17;;;16.67;;
9459;SDS011;4768;42.664;23.240;2023-11-22T12:01:54;26.77;;;17.00;;
9459;SDS011;4768;42.664;23.240;2023-11-22T12:04:22;26.53;;;16.17;;
9459;SDS011;4768;42.664;23.240;2023-11-22T12:06:49;26.07;;;15.53;;
9459;SDS011;4768;42.664;23.240;2023-11-22T12:09:22;25.30;;;15.30;;
9459;SDS011;4768;42.664;23.240;2023-11-22T12:11:50;33.23;;;18.40;;
9459;SDS011;4768;42.664;23.240;2023-11-22T12:14:18;26.97;;;16.17;;
9459;SDS011;4768;42.664;23.240;2023-11-22T12:16:45;26.23;;;16.53;;
9459;SDS011;4768;42.664;23.240;2023-11-22T12:19:21;24.80;;;15.90;;
9459;SDS011;4768;42.664;23.240;2023-11-22T12:21:49;27.97;;;16.43;;
9459;SDS011;4768;42.664;23.240;2023-11-22T12:24:16;27.43;;;17.40;;
9459;SDS011;4768;42.664;23.240;2023-11-22T12:26:44;28.60;;;18.37;;
9459;SDS011;4768;42.664;23.240;2023-11-22T12:29:13;29.23;;;18.90;;
9459;SDS011;4768;42.664;23.240;2023-11-22T12:31:46;29.87;;;19.53;;
9459;SDS011;4768;42.664;23.240;2023-11-22T12:34:16;31.80;;;19.37;;
9459;SDS011;4768;42.664;23.240;2023-11-22T12:36:45;26.53;;;17.43;;
9459;SDS011;4768;42.664;23.240;2023-11-22T12:39:13;33.17;;;19.87;;
9459;SDS011;4768;42.664;23.240;2023-11-22T12:41:45;33.17;;;21.43;;
9459;SDS011;4768;42.664;23.240;2023-11-22T12:44:13;39.83;;;23.67;;
9459;SDS011;4768;42.664;23.240;2023-11-22T12:46:46;42.60;;;26.83;;
9459;SDS011;4768;42.664;23.240;2023-11-22T12:49:15;39.50;;;25.87;;
9459;SDS011;4768;42.664;23.240;2023-11-22T12:51:51;38.57;;;25.67;;
9459;SDS011;4768;42.664;23.240;2023-11-22T12:54:19;41.20;;;26.43;;
9459;SDS011;4768;42.664;23.240;2023-11-22T12:56:50;45.20;;;28.73;;
9459;SDS011;4768;42.664;23.240;2023-11-22T12:59:19;43.30;;;26.50;;
9459;SDS011;4768;42.664;23.240;2023-11-22T13:01:46;41.73;;;26.57;;
9459;SDS011;4768;42.664;23.240;2023-11-22T13:04:13;36.63;;;25.03;;
9459;SDS011;4768;42.664;23.240;2023-11-22T13:06:40;39.73;;;26.57;;
9459;SDS011;4768;42.664;23.240;2023-11-22T13:09:09;40.27;;;26.90;;
9459;SDS011;4768;42.664;23.240;2023-11-22T13:11:40;32.57;;;21.80;;
9459;SDS011;4768;42.664;23.240;2023-11-22T13:14:08;33.07;;;21.53;;
9459;SDS011;4768;42.664;23.240;2023-11-22T13:16:35;31.50;;;19.90;;
9459;SDS011;4768;42.664;23.240;2023-11-22T13:19:04;33.07;;;21.43;;
9459;SDS011;4768;42.664;23.240;2023-11-22T13:21:31;45.33;;;29.50;;
9459;SDS011;4768;42.664;23.240;2023-11-22T13:23:58;31.70;;;20.33;;
9459;SDS011;4768;42.664;23.240;2023-11-22T13:26:26;29.87;;;18.67;;
9459;SDS011;4768;42.664;23.240;2023-11-22T13:28:53;39.23;;;23.80;;
9459;SDS011;4768;42.664;23.240;2023-11-22T13:31:21;37.93;;;22.60;;
9459;SDS011;4768;42.664;23.240;2023-11-22T13:33:48;37.73;;;22.83;;
9459;SDS011;4768;42.664;23.240;2023-11-22T13:36:15;32.60;;;19.63;;
9459;SDS011;4768;42.664;23.240;2023-11-22T13:38:42;35.97;;;22.90;;
9459;SDS011;4768;42.664;23.240;2023-11-22T13:41:09;32.40;;;19.63;;
9459;SDS011;4768;42.664;23.240;2023-11-22T13:43:37;29.93;;;18.27;;
9459;SDS011;4768;42.664;23.240;2023-11-22T13:46:04;30.67;;;19.27;;
9459;SDS011;4768;42.664;23.240;2023-11-22T13:48:32;32.47;;;19.83;;
9459;SDS011;4768;42.664;23.240;2023-11-22T13:50:58;31.73;;;18.97;;
9459;SDS011;4768;42.664;23.240;2023-11-22T13:53:26;29.23;;;19.90;;
9459;SDS011;4768;42.664;23.240;2023-11-22T13:55:57;33.17;;;19.60;;
9459;SDS011;4768;42.664;23.240;2023-11-22T13:58:25;30.10;;;18.93;;
9459;SDS011;4768;42.664;23.240;2023-11-22T14:00:53;30.47;;;19.87;;
9459;SDS011;4768;42.664;23.240;2023-11-22T14:03:20;30.50;;;19.70;;
9459;SDS011;4768;42.664;23.240;2023-11-22T14:05:48;27.60;;;19.13;;
9459;SDS011;4768;42.664;23.240;2023-11-22T14:08:15;31.70;;;18.10;;
9459;SDS011;4768;42.664;23.240;2023-11-22T14:10:41;29.23;;;18.20;;
9459;SDS011;4768;42.664;23.240;2023-11-22T14:13:10;25.87;;;16.07;;
9459;SDS011;4768;42.664;23.240;2023-11-22T14:15:37;26.33;;;16.87;;
9459;SDS011;4768;42.664;23.240;2023-11-22T14:18:05;24.10;;;14.40;;
9459;SDS011;4768;42.664;23.240;2023-11-22T14:20:32;68.97;;;34.60;;
9459;SDS011;4768;42.664;23.240;2023-11-22T14:23:00;45.83;;;26.03;;
9459;SDS011;4768;42.664;23.240;2023-11-22T14:25:27;39.50;;;22.60;;
9459;SDS011;4768;42.664;23.240;2023-11-22T14:27:54;26.37;;;17.90;;
9459;SDS011;4768;42.664;23.240;2023-11-22T14:30:22;31.67;;;19.13;;
9459;SDS011;4768;42.664;23.240;2023-11-22T14:32:51;29.43;;;17.90;;
9459;SDS011;4768;42.664;23.240;2023-11-22T14:35:19;36.83;;;21.63;;
9459;SDS011;4768;42.664;23.240;2023-11-22T14:37:46;24.00;;;13.57;;
9459;SDS011;4768;42.664;23.240;2023-11-22T14:40:13;20.70;;;13.53;;
9459;SDS011;4768;42.664;23.240;2023-11-22T14:42:41;21.27;;;12.00;;
9459;SDS011;4768;42.664;23.240;2023-11-22T14:45:08;20.10;;;12.33;;
9459;SDS011;4768;42.664;23.240;2023-11-22T14:47:37;24.70;;;13.57;;